Terminal Aerodrome Forecast
Issued by NWS Jacksonville, FL

Home | Current Version | Previous Version | Text Only | Print | Product List | Glossary On
Versions: 1 2 3 4 5 6 7 8 9 10 11 12 13 14 15 16 17 18 19 20 21 22 23 24 25 26 27 28 29
000
FTUS42 KJAX 260312 AAG
TAFJAX
TAF AMD
KJAX 260312Z 2603/2624 34005KT P6SM VCSH BKN035 BKN040 BKN120
     FM260400 00000KT P6SM SCT040 BKN150 BKN250
     FM261000 21003KT P6SM BKN020 OVC060
     FM261300 19006KT P6SM SCT030 SCT200
     FM261800 11008KT P6SM VCTS SCT040CB BKN200=

USA.gov is the U.S. government's official web portal to all federal, state and local government web resources and services.